createdAt,value
2023-02-08T00:01:10.954Z,100.00
2023-02-08T00:04:53.766Z,100.00
2023-02-08T00:08:43.413Z,100.00
2023-02-08T00:13:02.022Z,100.00
2023-02-08T00:16:51.133Z,100.00
2023-02-08T00:20:40.478Z,100.00
2023-02-08T00:24:29.747Z,100.00
2023-02-08T00:28:18.779Z,100.00
2023-02-08T00:32:07.904Z,100.00
2023-02-08T00:35:57.313Z,100.00
2023-02-08T00:39:46.463Z,100.00
2023-02-08T00:43:35.715Z,100.00
2023-02-08T00:47:25.018Z,100.00
2023-02-08T00:51:12.824Z,100.00
2023-02-08T00:55:02.091Z,100.00
2023-02-08T00:58:52.304Z,100.00
2023-02-08T01:02:43.560Z,100.00
2023-02-08T01:07:20.662Z,100.00
2023-02-08T01:11:08.615Z,100.00
2023-02-08T01:14:56.160Z,100.00
2023-02-08T01:18:43.782Z,100.00
2023-02-08T01:22:34.182Z,100.00
2023-02-08T01:26:21.992Z,100.00
2023-02-08T01:30:10.379Z,100.00
2023-02-08T01:33:58.719Z,100.00
2023-02-08T01:57:10.717Z,100.00
2023-02-08T02:00:59.738Z,100.00
2023-02-08T02:04:48.909Z,100.00
2023-02-08T02:08:39.843Z,100.00
2023-02-08T02:12:30.163Z,100.00
2023-02-08T02:16:20.078Z,100.00
2023-02-08T02:20:09.438Z,100.00
2023-02-08T02:24:08.555Z,100.00
2023-02-08T02:39:57.677Z,100.00
2023-02-08T02:44:03.470Z,100.00
2023-02-08T02:47:59.536Z,100.00
2023-02-08T02:59:31.531Z,100.00
2023-02-08T03:03:20.398Z,100.00
2023-02-08T03:07:12.278Z,100.00
2023-02-08T03:11:16.383Z,100.00
2023-02-08T03:23:03.603Z,100.00
2023-02-08T03:27:00.321Z,100.00
2023-02-08T03:30:48.305Z,100.00
2023-02-08T03:34:37.442Z,100.00
2023-02-08T03:50:39.582Z,100.00
2023-02-08T03:54:28.758Z,100.00
2023-02-08T03:58:17.672Z,100.00
2023-02-08T04:02:01.425Z,100.00
2023-02-08T04:21:47.815Z,100.00
2023-02-08T04:25:35.798Z,100.00
2023-02-08T04:33:07.380Z,100.00
2023-02-08T04:44:59.825Z,100.00
2023-02-08T04:48:48.880Z,100.00
2023-02-08T04:52:37.910Z,100.00
2023-02-08T04:56:27.058Z,100.00
2023-02-08T05:00:16.019Z,100.00
2023-02-08T05:04:05.113Z,100.00
2023-02-08T05:07:54.122Z,100.00
2023-02-08T05:11:46.696Z,100.00
2023-02-08T05:15:35.722Z,100.00
2023-02-08T05:19:25.028Z,100.00
2023-02-08T05:23:14.095Z,100.00
2023-02-08T05:54:01.736Z,100.00
2023-02-08T05:57:51.111Z,100.00
2023-02-08T06:01:40.165Z,100.00
2023-02-08T06:05:29.530Z,100.00
2023-02-08T06:09:07.441Z,100.00
2023-02-08T06:12:16.449Z,100.00
2023-02-08T06:15:51.161Z,100.00
2023-02-08T06:19:22.854Z,100.00
2023-02-08T06:22:40.606Z,100.00
2023-02-08T06:26:18.995Z,100.00
2023-02-08T06:29:48.725Z,100.00
2023-02-08T06:33:27.331Z,100.00
2023-02-08T06:36:47.436Z,100.00
2023-02-08T06:40:36.521Z,100.00
2023-02-08T06:44:08.956Z,100.00
2023-02-08T06:47:17.891Z,100.00
2023-02-08T06:50:46.587Z,100.00
2023-02-08T06:54:25.329Z,100.00
2023-02-08T06:58:14.617Z,100.00
2023-02-08T07:02:02.229Z,100.00
2023-02-08T07:05:14.401Z,100.00
2023-02-08T07:08:43.653Z,100.00
2023-02-08T07:11:25.070Z,100.00
2023-02-08T07:14:14.152Z,100.00
2023-02-08T07:16:48.678Z,100.00
2023-02-08T07:19:47.065Z,100.00
2023-02-08T07:23:07.742Z,100.00
2023-02-08T07:26:45.357Z,100.00
2023-02-08T07:30:06.677Z,100.00
2023-02-08T07:33:18.622Z,100.00
2023-02-08T07:36:50.173Z,100.00
2023-02-08T07:40:33.453Z,100.00
2023-02-08T07:43:27.186Z,100.00
2023-02-08T07:47:00.565Z,100.00
2023-02-08T07:50:08.063Z,100.00
2023-02-08T07:53:11.680Z,100.00
2023-02-08T07:56:10.500Z,100.00
2023-02-08T07:59:17.754Z,100.00
2023-02-08T08:02:51.961Z,100.00
2023-02-08T08:06:28.331Z,100.00
2023-02-08T08:10:11.011Z,100.00
2023-02-08T08:13:19.775Z,100.00
2023-02-08T08:17:08.840Z,100.00
2023-02-08T08:27:46.609Z,100.00
2023-02-08T08:38:54.971Z,100.00
2023-02-08T08:50:39.405Z,100.00
2023-02-08T08:54:28.521Z,100.00
2023-02-08T08:58:07.569Z,100.00
2023-02-08T09:01:50.643Z,100.00
2023-02-08T09:04:49.421Z,100.00
2023-02-08T09:08:28.332Z,100.00
2023-02-08T09:30:05.522Z,100.00
2023-02-08T09:33:43.512Z,100.00
2023-02-08T09:37:17.550Z,100.00
2023-02-08T09:40:48.148Z,100.00
2023-02-08T09:44:38.076Z,100.00
2023-02-08T09:59:41.555Z,100.00
2023-02-08T10:03:30.700Z,100.00
2023-02-08T10:06:55.221Z,100.00
2023-02-08T10:10:44.698Z,100.00
2023-02-08T10:14:24.350Z,100.00
2023-02-08T10:29:42.976Z,100.00
2023-02-08T10:33:31.834Z,100.00
2023-02-08T10:37:16.499Z,100.00
2023-02-08T10:40:16.729Z,100.00
2023-02-08T10:43:35.470Z,100.00
2023-02-08T10:47:00.784Z,100.00
2023-02-08T10:50:52.313Z,100.00
2023-02-08T11:21:04.460Z,69.86
2023-02-08T11:24:48.555Z,72.04
2023-02-08T11:28:12.852Z,68.76
2023-02-08T11:31:41.948Z,67.27
2023-02-08T11:35:37.184Z,65.69
2023-02-08T11:39:16.017Z,56.45
2023-02-08T11:42:50.768Z,59.42
2023-02-08T11:46:32.762Z,60.55
2023-02-08T11:50:13.127Z,58.08
2023-02-08T12:16:10.906Z,50.04
2023-02-08T12:20:15.110Z,50.47
2023-02-08T12:24:08.989Z,44.03
2023-02-08T12:36:05.396Z,44.62
2023-02-08T12:40:00.709Z,45.95
2023-02-08T12:43:54.492Z,44.71
2023-02-08T12:48:07.679Z,43.17
2023-02-08T12:51:41.617Z,38.18
2023-02-08T12:55:29.530Z,37.17
2023-02-08T12:59:15.108Z,39.56
2023-02-08T13:19:05.988Z,38.94
2023-02-08T13:22:46.286Z,36.96
2023-02-08T13:25:56.870Z,34.61
2023-02-08T13:28:41.485Z,34.91
2023-02-08T13:31:27.092Z,35.76
2023-02-08T13:34:57.955Z,34.28
2023-02-08T13:38:39.443Z,36.10
2023-02-08T13:42:31.359Z,35.02
2023-02-08T13:46:12.181Z,35.81
2023-02-08T13:49:37.200Z,35.51
2023-02-08T13:53:35.390Z,35.59
2023-02-08T14:01:35.409Z,37.41
2023-02-08T14:05:09.991Z,38.69
2023-02-08T14:08:29.057Z,39.88
2023-02-08T14:11:55.691Z,40.70
2023-02-08T14:15:56.885Z,41.21
2023-02-08T14:19:56.668Z,42.34
2023-02-08T14:34:35.045Z,46.83
2023-02-08T14:38:29.712Z,47.77
2023-02-08T14:42:20.112Z,48.16
2023-02-08T14:45:35.519Z,48.97
2023-02-08T14:49:24.572Z,49.55
2023-02-08T14:53:06.101Z,50.06
2023-02-08T15:08:53.387Z,52.99
2023-02-08T15:12:28.001Z,53.30
2023-02-08T15:16:20.129Z,53.85
2023-02-08T15:20:12.190Z,54.30
2023-02-08T15:23:56.232Z,55.20
2023-02-08T15:27:49.591Z,55.63
2023-02-08T15:31:39.002Z,56.51
2023-02-08T15:35:38.455Z,57.10
2023-02-08T15:53:44.817Z,59.30
2023-02-08T15:57:19.691Z,59.76
2023-02-08T16:01:17.737Z,60.29
2023-02-08T16:04:55.982Z,61.08
2023-02-08T16:08:45.831Z,61.58
2023-02-08T16:12:16.587Z,62.52
2023-02-08T16:16:18.422Z,62.80
2023-02-08T16:31:50.977Z,65.11
2023-02-08T16:35:20.342Z,65.47
2023-02-08T16:38:57.055Z,65.67
2023-02-08T16:43:01.331Z,66.15
2023-02-08T16:46:48.390Z,66.87
2023-02-08T17:16:37.288Z,73.14
2023-02-08T17:20:24.977Z,74.13
2023-02-08T17:24:12.579Z,74.39
2023-02-08T17:36:16.289Z,75.53
2023-02-08T17:40:02.942Z,75.88
2023-02-08T17:43:50.749Z,77.33
2023-02-08T17:47:38.369Z,77.74
2023-02-08T17:51:27.132Z,77.77
2023-02-08T17:55:18.000Z,78.34
2023-02-08T18:10:50.813Z,80.87
2023-02-08T18:14:40.005Z,82.52
2023-02-08T18:18:22.260Z,82.58
2023-02-08T18:22:14.795Z,83.13
2023-02-08T18:26:03.919Z,83.63
2023-02-08T18:29:51.471Z,84.57
2023-02-08T18:33:23.238Z,84.37
2023-02-08T18:37:11.040Z,84.63
2023-02-08T18:41:00.564Z,85.53
2023-02-08T18:44:50.690Z,85.73
2023-02-08T18:48:33.155Z,86.04
2023-02-08T18:52:22.473Z,86.52
2023-02-08T18:55:53.646Z,86.48
2023-02-08T18:59:25.342Z,86.88
2023-02-08T19:02:58.664Z,87.16
2023-02-08T19:06:44.025Z,88.11
2023-02-08T19:09:49.705Z,88.22
2023-02-08T19:13:38.369Z,88.41
2023-02-08T19:17:28.016Z,89.33
2023-02-08T19:21:10.292Z,89.33
2023-02-08T19:28:49.495Z,90.42
2023-02-08T19:40:17.796Z,91.34
2023-02-08T19:44:07.353Z,92.12
2023-02-08T19:47:55.951Z,92.67
2023-02-08T19:51:45.094Z,93.14
2023-02-08T19:55:34.341Z,93.73
2023-02-08T19:59:16.681Z,93.96
2023-02-08T20:03:16.346Z,94.27
2023-02-08T20:06:56.199Z,94.52
2023-02-08T20:11:21.339Z,94.68
2023-02-08T20:15:10.386Z,94.64
2023-02-08T20:18:50.384Z,95.08
2023-02-08T20:22:18.303Z,95.40
2023-02-08T20:25:58.632Z,95.46
2023-02-08T20:29:40.862Z,95.39
2023-02-08T20:33:32.273Z,95.81
2023-02-08T20:37:08.374Z,96.18
2023-02-08T20:44:06.478Z,97.09
2023-02-08T20:47:29.950Z,97.63
2023-02-08T20:51:03.850Z,98.08
2023-02-08T20:54:15.440Z,98.07
2023-02-08T20:57:33.974Z,98.42
2023-02-08T21:01:02.930Z,98.59
2023-02-08T21:04:52.150Z,98.44
2023-02-08T21:08:27.577Z,98.60
2023-02-08T21:12:10.395Z,99.21
2023-02-08T21:42:22.642Z,100.00
2023-02-08T21:46:11.810Z,100.00
2023-02-08T21:49:59.701Z,100.00
2023-02-08T21:53:47.246Z,100.00
2023-02-08T21:57:26.184Z,100.00
2023-02-08T22:01:15.347Z,100.00
2023-02-08T22:04:57.622Z,100.00
2023-02-08T22:08:46.651Z,100.00
2023-02-08T22:12:37.118Z,100.00
2023-02-08T22:16:26.123Z,100.00
2023-02-08T22:39:17.017Z,100.00
2023-02-08T22:43:05.952Z,100.00
2023-02-08T22:46:57.832Z,100.00
2023-02-08T22:50:47.191Z,100.00
2023-02-08T22:54:29.192Z,100.00
2023-02-08T22:58:19.954Z,100.00
2023-02-08T23:02:12.993Z,100.00
2023-02-08T23:05:56.306Z,100.00
2023-02-08T23:09:45.714Z,100.00
2023-02-08T23:13:35.136Z,100.00
2023-02-08T23:17:04.949Z,100.00
2023-02-08T23:20:54.952Z,100.00
2023-02-08T23:24:44.890Z,100.00
2023-02-08T23:28:33.799Z,100.00
2023-02-08T23:32:23.121Z,100.00
2023-02-08T23:36:12.332Z,100.00
2023-02-08T23:40:30.748Z,100.00
2023-02-08T23:44:19.884Z,100.00
2023-02-08T23:48:08.875Z,100.00
2023-02-08T23:51:57.839Z,100.00
2023-02-08T23:55:46.822Z,100.00
2023-02-08T23:59:35.857Z,100.00
